createdAt,value
2019-02-04T00:00:45.752Z,27.55
2019-02-04T00:03:15.540Z,26.12
2019-02-04T00:05:48.230Z,24.55
2019-02-04T00:08:17.490Z,35.83
2019-02-04T00:10:49.684Z,28.75
2019-02-04T00:13:18.738Z,33.38
2019-02-04T00:15:47.676Z,29.10
2019-02-04T00:18:15.782Z,31.85
2019-02-04T00:20:43.980Z,37.33
2019-02-04T00:23:16.958Z,38.10
2019-02-04T00:25:48.420Z,26.27
2019-02-04T00:28:17.786Z,26.80
2019-02-04T00:30:49.166Z,34.30
2019-02-04T00:33:17.274Z,29.37
2019-02-04T00:35:49.231Z,33.18
2019-02-04T00:38:19.854Z,36.93
2019-02-04T00:40:49.590Z,35.65
2019-02-04T00:43:19.373Z,36.05
2019-02-04T00:45:47.464Z,33.63
2019-02-04T00:48:17.230Z,31.87
2019-02-04T00:50:45.602Z,40.08
2019-02-04T00:53:13.708Z,40.95
2019-02-04T00:55:41.914Z,36.90
2019-02-04T00:58:10.078Z,38.05
2019-02-04T01:00:38.198Z,43.73
2019-02-04T01:03:09.648Z,35.03
2019-02-04T01:05:37.749Z,41.05
2019-02-04T01:08:07.624Z,36.55
2019-02-04T01:10:38.509Z,36.90
2019-02-04T01:13:09.287Z,39.60
2019-02-04T01:15:37.537Z,34.40
2019-02-04T01:18:07.287Z,35.38
2019-02-04T01:20:37.448Z,36.63
2019-02-04T01:23:05.546Z,35.17
2019-02-04T01:25:33.661Z,32.33
2019-02-04T01:28:03.497Z,35.15
2019-02-04T01:30:31.611Z,33.15
2019-02-04T01:32:59.713Z,36.68
2019-02-04T01:35:28.161Z,36.98
2019-02-04T01:37:57.903Z,36.42
2019-02-04T01:40:27.635Z,28.77
2019-02-04T01:42:55.803Z,32.13
2019-02-04T01:45:24.361Z,29.42
2019-02-04T01:47:52.460Z,32.25
2019-02-04T01:50:21.409Z,30.68
2019-02-04T01:52:51.991Z,33.40
2019-02-04T01:55:21.739Z,30.00
2019-02-04T01:57:50.822Z,31.12
2019-02-04T02:00:34.829Z,30.95
2019-02-04T02:03:04.567Z,33.95
2019-02-04T02:05:32.775Z,28.23
2019-02-04T02:08:02.530Z,27.95
2019-02-04T02:10:30.758Z,30.08
2019-02-04T02:13:00.298Z,29.05
2019-02-04T02:15:29.347Z,30.12
2019-02-04T02:17:57.445Z,27.40
2019-02-04T02:20:26.524Z,33.33
2019-02-04T02:22:56.357Z,26.45
2019-02-04T02:28:55.595Z,27.25
2019-02-04T02:31:28.868Z,29.37
2019-02-04T02:33:57.018Z,25.70
2019-02-04T02:36:25.218Z,29.48
2019-02-04T02:38:53.390Z,23.65
2019-02-04T02:41:23.903Z,29.67
2019-02-04T02:43:52.082Z,25.27
2019-02-04T02:46:20.482Z,26.12
2019-02-04T02:48:48.607Z,26.23
2019-02-04T02:51:16.986Z,25.02
2019-02-04T02:53:45.090Z,22.95
2019-02-04T02:56:16.113Z,27.67
2019-02-04T02:58:46.016Z,30.43
2019-02-04T03:01:17.458Z,21.97
2019-02-04T03:03:46.851Z,29.40
2019-02-04T03:06:17.130Z,25.88
2019-02-04T03:08:45.246Z,24.82
2019-02-04T03:11:15.884Z,24.02
2019-02-04T03:13:43.979Z,24.02
2019-02-04T03:16:12.466Z,28.80
2019-02-04T03:18:42.862Z,24.60
2019-02-04T03:21:11.742Z,27.22
2019-02-04T03:26:27.501Z,25.32
2019-02-04T03:28:57.527Z,24.90
2019-02-04T03:31:25.696Z,24.98
2019-02-04T03:33:54.153Z,28.80
2019-02-04T03:36:22.260Z,22.15
2019-02-04T03:38:51.889Z,26.27
2019-02-04T03:41:21.757Z,23.67
2019-02-04T03:43:49.893Z,27.32
2019-02-04T03:46:19.806Z,27.82
2019-02-04T03:48:47.905Z,21.90
2019-02-04T03:51:16.006Z,25.40
2019-02-04T03:53:45.102Z,24.40
2019-02-04T03:56:15.420Z,26.90
2019-02-04T03:58:45.161Z,18.80
2019-02-04T04:01:15.520Z,19.60
2019-02-04T04:03:46.765Z,21.57
2019-02-04T04:06:14.894Z,25.85
2019-02-04T04:08:43.051Z,23.30
2019-02-04T04:13:42.353Z,20.02
2019-02-04T04:16:12.077Z,22.90
2019-02-04T04:18:41.805Z,30.35
2019-02-04T04:21:11.075Z,18.25
2019-02-04T04:23:39.160Z,20.77
2019-02-04T04:26:09.945Z,24.10
2019-02-04T04:28:40.601Z,20.30
2019-02-04T04:31:11.879Z,21.35
2019-02-04T04:33:40.109Z,24.65
2019-02-04T04:36:08.717Z,20.25
2019-02-04T04:38:41.367Z,21.75
2019-02-04T04:41:09.469Z,19.07
2019-02-04T04:43:39.238Z,19.12
2019-02-04T04:46:09.071Z,22.55
2019-02-04T04:48:37.248Z,25.40
2019-02-04T04:51:05.357Z,19.37
2019-02-04T04:53:33.927Z,18.45
2019-02-04T04:56:02.029Z,21.55
2019-02-04T04:58:30.590Z,23.85
2019-02-04T05:00:58.674Z,18.30
2019-02-04T05:03:26.784Z,19.12
2019-02-04T05:05:56.553Z,16.23
2019-02-04T05:08:25.132Z,19.42
2019-02-04T05:10:53.214Z,19.10
2019-02-04T05:13:21.317Z,23.65
2019-02-04T05:15:49.685Z,26.23
2019-02-04T05:18:17.812Z,24.12
2019-02-04T05:20:47.815Z,22.32
2019-02-04T05:23:17.526Z,20.20
2019-02-04T05:25:47.166Z,22.35
2019-02-04T05:28:16.725Z,22.55
2019-02-04T05:30:44.864Z,24.30
2019-02-04T05:33:15.646Z,22.98
2019-02-04T05:35:43.794Z,20.05
2019-02-04T05:38:18.846Z,22.60
2019-02-04T05:40:43.280Z,23.25
2019-02-04T05:43:11.378Z,21.97
2019-02-04T05:45:39.485Z,19.05
2019-02-04T05:48:09.211Z,21.00
2019-02-04T05:50:41.412Z,18.92
2019-02-04T05:53:09.508Z,23.42
2019-02-04T05:55:40.664Z,24.20
2019-02-04T05:58:10.994Z,22.17
2019-02-04T06:00:45.969Z,18.32
2019-02-04T06:03:14.066Z,19.52
2019-02-04T06:05:42.730Z,25.48
2019-02-04T06:08:10.835Z,22.35
2019-02-04T06:10:41.565Z,22.00
2019-02-04T06:13:09.712Z,23.00
2019-02-04T06:15:37.798Z,19.10
2019-02-04T06:18:05.906Z,21.50
2019-02-04T06:20:34.371Z,22.37
2019-02-04T06:23:02.515Z,17.45
2019-02-04T06:25:37.873Z,21.15
2019-02-04T06:28:06.035Z,19.07
2019-02-04T06:30:35.926Z,20.43
2019-02-04T06:33:13.265Z,22.40
2019-02-04T06:35:41.354Z,21.33
2019-02-04T06:38:11.628Z,17.62
2019-02-04T06:40:44.916Z,15.95
2019-02-04T06:43:13.015Z,17.52
2019-02-04T06:45:45.898Z,20.72
2019-02-04T06:48:15.037Z,15.63
2019-02-04T06:50:43.141Z,15.70
2019-02-04T06:53:14.428Z,18.05
2019-02-04T06:59:37.636Z,20.62
2019-02-04T07:02:05.815Z,20.80
2019-02-04T07:04:36.224Z,22.10
2019-02-04T07:07:03.689Z,20.00
2019-02-04T07:09:32.625Z,20.90
2019-02-04T07:12:00.762Z,22.22
2019-02-04T07:14:29.878Z,21.82
2019-02-04T07:16:58.056Z,21.93
2019-02-04T07:19:26.709Z,18.98
2019-02-04T07:21:56.637Z,16.35
2019-02-04T07:24:27.655Z,19.57
2019-02-04T07:26:55.749Z,19.85
2019-02-04T07:29:25.621Z,18.67
2019-02-04T07:31:55.357Z,19.20
2019-02-04T07:34:23.501Z,25.88
2019-02-04T07:36:51.625Z,25.62
2019-02-04T07:39:20.317Z,22.58
2019-02-04T07:41:49.892Z,23.80
2019-02-04T07:44:18.095Z,26.02
2019-02-04T07:46:55.448Z,22.22
2019-02-04T07:49:34.794Z,21.95
2019-02-04T07:51:57.296Z,21.33
2019-02-04T07:54:27.032Z,20.45
2019-02-04T07:56:58.241Z,21.52
2019-02-04T07:59:32.417Z,20.08
2019-02-04T08:02:00.514Z,19.57
2019-02-04T08:04:28.608Z,20.92
2019-02-04T08:06:56.963Z,19.40
2019-02-04T08:09:25.124Z,17.27
2019-02-04T08:11:57.678Z,20.27
2019-02-04T08:14:25.810Z,19.37
2019-02-04T08:16:53.903Z,18.23
2019-02-04T08:19:23.700Z,22.07
2019-02-04T08:21:55.850Z,21.73
2019-02-04T08:24:23.922Z,20.48
2019-02-04T08:26:52.047Z,18.50
2019-02-04T08:29:20.118Z,16.05
2019-02-04T08:31:49.906Z,20.88
2019-02-04T08:34:18.011Z,17.48
2019-02-04T08:36:46.517Z,19.27
2019-02-04T08:39:22.194Z,17.85
2019-02-04T08:41:53.311Z,16.15
2019-02-04T08:44:23.128Z,16.52
2019-02-04T08:46:55.796Z,16.07
2019-02-04T08:49:25.514Z,15.35
2019-02-04T08:51:55.374Z,17.23
2019-02-04T08:54:23.846Z,15.25
2019-02-04T09:00:24.281Z,17.50
2019-02-04T09:02:52.386Z,15.30
2019-02-04T09:05:21.320Z,16.05
2019-02-04T09:07:49.544Z,13.20
2019-02-04T09:10:19.367Z,17.50
2019-02-04T09:12:47.552Z,17.50
2019-02-04T09:15:16.332Z,16.62
2019-02-04T09:17:44.668Z,15.98
2019-02-04T09:20:17.283Z,16.52
2019-02-04T09:22:45.838Z,13.88
2019-02-04T09:25:18.470Z,17.90
2019-02-04T09:27:46.889Z,16.55
2019-02-04T09:30:16.692Z,16.02
2019-02-04T09:32:44.778Z,19.00
2019-02-04T09:35:16.125Z,19.45
2019-02-04T09:37:44.473Z,14.93
2019-02-04T09:40:14.489Z,25.15
2019-02-04T09:42:42.586Z,14.90
2019-02-04T09:45:12.624Z,16.10
2019-02-04T09:47:40.711Z,17.77
2019-02-04T09:50:21.171Z,15.78
2019-02-04T09:52:40.385Z,13.83
2019-02-04T09:55:12.825Z,17.87
2019-02-04T09:57:41.503Z,15.68
2019-02-04T10:00:14.317Z,13.83
2019-02-04T10:02:42.472Z,13.95
2019-02-04T10:05:14.643Z,17.10
2019-02-04T10:07:42.651Z,20.23
2019-02-04T10:10:12.405Z,19.73
2019-02-04T10:12:41.015Z,15.45
2019-02-04T10:15:10.827Z,18.12
2019-02-04T10:17:38.992Z,15.03
2019-02-04T10:20:08.981Z,14.50
2019-02-04T10:25:06.092Z,15.05
2019-02-04T10:27:36.838Z,21.52
2019-02-04T10:30:09.800Z,17.12
2019-02-04T10:32:39.551Z,15.55
2019-02-04T10:35:16.764Z,17.00
2019-02-04T10:37:42.069Z,16.37
2019-02-04T10:40:15.694Z,16.02
2019-02-04T10:42:43.955Z,14.30
2019-02-04T10:45:13.288Z,15.28
2019-02-04T10:47:48.270Z,17.48
2019-02-04T10:50:31.711Z,16.27
2019-02-04T10:52:59.853Z,16.48
2019-02-04T10:55:32.519Z,15.15
2019-02-04T10:58:03.026Z,16.40
2019-02-04T11:00:31.847Z,13.72
2019-02-04T11:03:00.034Z,17.05
2019-02-04T11:05:31.096Z,17.17
2019-02-04T11:08:00.893Z,20.20
2019-02-04T11:10:32.235Z,16.52
2019-02-04T11:13:02.787Z,15.98
2019-02-04T11:15:33.596Z,15.05
2019-02-04T11:18:02.828Z,16.00
2019-02-04T11:20:32.851Z,17.07
2019-02-04T11:23:01.137Z,21.23
2019-02-04T11:25:29.236Z,15.83
2019-02-04T11:27:57.330Z,14.75
2019-02-04T11:30:29.929Z,17.37
2019-02-04T11:32:58.091Z,21.55
2019-02-04T11:35:29.295Z,18.12
2019-02-04T11:37:59.515Z,23.22
2019-02-04T11:40:33.273Z,20.02
2019-02-04T11:43:05.426Z,21.00
2019-02-04T11:45:33.702Z,22.00
2019-02-04T11:48:02.275Z,21.57
2019-02-04T11:50:30.449Z,25.35
2019-02-04T11:52:58.547Z,23.35
2019-02-04T11:55:28.329Z,22.95
2019-02-04T11:58:00.425Z,19.35
2019-02-04T12:00:33.159Z,23.95
2019-02-04T12:03:05.267Z,19.87
2019-02-04T12:05:33.374Z,22.93
2019-02-04T12:08:01.563Z,25.08
2019-02-04T12:10:37.407Z,23.70
2019-02-04T12:13:05.562Z,26.45
2019-02-04T12:15:34.746Z,25.05
2019-02-04T12:18:02.848Z,23.62
2019-02-04T12:20:30.949Z,24.47
2019-02-04T12:22:59.047Z,26.95
2019-02-04T12:25:27.422Z,23.47
2019-02-04T12:27:57.054Z,25.00
2019-02-04T12:30:30.805Z,21.25
2019-02-04T12:32:59.987Z,22.87
2019-02-04T12:35:28.112Z,28.27
2019-02-04T12:37:56.237Z,19.42
2019-02-04T12:40:27.285Z,24.57
2019-02-04T12:42:57.201Z,25.48
2019-02-04T12:45:32.465Z,23.35
2019-02-04T12:48:04.878Z,22.67
2019-02-04T12:50:36.336Z,26.80
2019-02-04T12:53:06.313Z,24.12
2019-02-04T12:55:38.701Z,17.50
2019-02-04T12:58:09.008Z,20.45
2019-02-04T13:00:40.942Z,20.92
2019-02-04T13:03:09.098Z,19.07
2019-02-04T13:05:40.140Z,21.97
2019-02-04T13:08:09.165Z,19.23
2019-02-04T13:10:42.545Z,25.65
2019-02-04T13:13:12.893Z,19.00
2019-02-04T13:15:41.028Z,23.05
2019-02-04T13:18:09.223Z,19.42
2019-02-04T13:20:37.353Z,22.15
2019-02-04T13:23:05.457Z,20.23
2019-02-04T13:25:33.554Z,20.97
2019-02-04T13:28:03.295Z,27.22
2019-02-04T13:30:33.706Z,23.65
2019-02-04T13:33:01.175Z,22.73
2019-02-04T13:35:32.322Z,20.48
2019-02-04T13:38:05.618Z,30.27
2019-02-04T13:40:34.746Z,27.65
2019-02-04T13:43:05.892Z,27.77
2019-02-04T13:45:37.252Z,22.25
2019-02-04T13:48:08.597Z,24.30
2019-02-04T13:50:36.807Z,27.17
2019-02-04T13:53:04.926Z,25.92
2019-02-04T13:55:33.897Z,22.62
2019-02-04T13:58:02.150Z,26.70
2019-02-04T14:00:33.114Z,26.73
2019-02-04T14:03:04.862Z,23.00
2019-02-04T14:05:32.678Z,26.20
2019-02-04T14:08:00.788Z,28.47
2019-02-04T14:10:36.288Z,26.65
2019-02-04T14:13:09.994Z,22.48
2019-02-04T14:15:40.163Z,25.77
2019-02-04T14:18:08.409Z,23.32
2019-02-04T14:20:38.464Z,23.47
2019-02-04T14:23:06.644Z,28.05
2019-02-04T14:25:34.740Z,30.68
2019-02-04T14:28:03.598Z,24.75
2019-02-04T14:30:36.997Z,26.68
2019-02-04T14:33:07.542Z,24.92
2019-02-04T14:35:35.641Z,24.50
2019-02-04T14:38:04.608Z,25.25
2019-02-04T14:40:32.832Z,24.47
2019-02-04T14:43:02.617Z,23.20
2019-02-04T14:45:32.349Z,25.00
2019-02-04T14:48:08.131Z,21.45
2019-02-04T14:50:41.821Z,23.98
2019-02-04T14:53:11.553Z,23.45
2019-02-04T14:58:12.029Z,20.68
2019-02-04T15:00:43.391Z,24.05
2019-02-04T15:03:19.773Z,22.60
2019-02-04T15:08:39.609Z,20.52
2019-02-04T15:11:14.989Z,22.15
2019-02-04T15:14:00.891Z,23.20
2019-02-04T15:16:31.879Z,20.90
2019-02-04T15:19:13.883Z,22.80
2019-02-04T15:21:47.287Z,20.60
2019-02-04T15:24:33.509Z,19.45
2019-02-04T15:27:14.917Z,26.30
2019-02-04T15:29:47.689Z,21.87
2019-02-04T15:32:30.823Z,23.05
2019-02-04T15:35:04.532Z,23.90
2019-02-04T15:37:34.625Z,19.42
2019-02-04T15:40:04.381Z,20.52
2019-02-04T15:42:41.349Z,21.12
2019-02-04T15:45:12.697Z,26.25
2019-02-04T15:47:45.041Z,20.27
2019-02-04T15:50:17.355Z,20.00
2019-02-04T15:52:48.459Z,22.62
2019-02-04T15:55:16.941Z,22.70
2019-02-04T15:57:46.959Z,24.45
2019-02-04T16:00:18.837Z,23.67
2019-02-04T16:02:46.930Z,24.30
2019-02-04T16:05:15.327Z,21.27
2019-02-04T16:07:43.537Z,19.37
2019-02-04T16:10:13.026Z,25.57
2019-02-04T16:12:41.123Z,23.65
2019-02-04T16:15:12.687Z,26.15
2019-02-04T16:17:43.318Z,25.88
2019-02-04T16:20:13.899Z,26.23
2019-02-04T16:22:43.549Z,24.23
2019-02-04T16:25:14.878Z,23.05
2019-02-04T16:27:43.000Z,25.20
2019-02-04T16:30:19.088Z,19.80
2019-02-04T16:32:47.194Z,23.52
2019-02-04T16:35:16.926Z,23.05
2019-02-04T16:37:47.327Z,27.95
2019-02-04T16:40:16.615Z,25.50
2019-02-04T16:42:46.476Z,26.00
2019-02-04T16:45:16.096Z,23.85
2019-02-04T16:47:44.271Z,26.87
2019-02-04T16:50:15.300Z,28.07
2019-02-04T16:52:43.429Z,27.15
2019-02-04T16:55:12.792Z,25.50
2019-02-04T16:57:40.815Z,29.57
2019-02-04T17:00:10.637Z,25.75
2019-02-04T17:02:38.954Z,27.02
2019-02-04T17:05:09.000Z,27.32
2019-02-04T17:07:37.255Z,28.45
2019-02-04T17:10:07.004Z,28.07
2019-02-04T17:12:35.110Z,29.35
2019-02-04T17:15:06.494Z,27.87
2019-02-04T17:17:34.604Z,30.15
2019-02-04T17:20:05.008Z,28.70
2019-02-04T17:22:33.151Z,26.50
2019-02-04T17:25:01.260Z,35.45
2019-02-04T17:27:29.503Z,28.10
2019-02-04T17:29:57.678Z,25.97
2019-02-04T17:32:25.881Z,29.00
2019-02-04T17:34:59.320Z,25.47
2019-02-04T17:37:27.443Z,29.23
2019-02-04T17:39:55.537Z,30.55
2019-02-04T17:42:26.249Z,32.30
2019-02-04T17:44:55.743Z,30.30
2019-02-04T17:47:23.905Z,31.30
2019-02-04T17:49:52.266Z,28.73
2019-02-04T17:52:20.425Z,29.77
2019-02-04T17:54:48.709Z,30.90
2019-02-04T17:57:16.829Z,31.95
2019-02-04T17:59:44.933Z,37.30
2019-02-04T18:02:16.217Z,28.90
2019-02-04T18:04:45.902Z,31.17
2019-02-04T18:07:14.001Z,32.73
2019-02-04T18:09:47.055Z,33.85
2019-02-04T18:12:16.707Z,30.37
2019-02-04T18:14:45.064Z,31.77
2019-02-04T18:17:13.621Z,31.10
2019-02-04T18:19:42.138Z,38.15
2019-02-04T18:22:12.494Z,36.60
2019-02-04T18:24:40.620Z,30.52
2019-02-04T18:27:09.095Z,31.60
2019-02-04T18:29:38.395Z,32.48
2019-02-04T18:32:08.061Z,33.80
2019-02-04T18:34:37.889Z,38.75
2019-02-04T18:37:06.008Z,36.28
2019-02-04T18:39:49.077Z,37.55
2019-02-04T18:42:17.417Z,40.92
2019-02-04T18:44:46.136Z,40.38
2019-02-04T18:47:14.311Z,42.48
2019-02-04T18:49:42.532Z,35.98
2019-02-04T18:52:10.712Z,40.00
2019-02-04T18:54:39.396Z,37.08
2019-02-04T18:57:07.518Z,41.40
2019-02-04T18:59:38.417Z,36.42
2019-02-04T19:02:11.301Z,38.13
2019-02-04T19:04:46.192Z,37.95
2019-02-04T19:07:14.570Z,37.73
2019-02-04T19:09:42.671Z,39.20
2019-02-04T19:14:41.121Z,42.93
2019-02-04T19:17:09.262Z,40.95
2019-02-04T19:19:40.658Z,40.25
2019-02-04T19:22:10.506Z,42.95
2019-02-04T19:24:41.382Z,38.00
2019-02-04T19:27:12.312Z,42.35
2019-02-04T19:29:40.436Z,44.60
2019-02-04T19:32:08.527Z,51.77
2019-02-04T19:34:36.707Z,47.53
2019-02-04T19:37:04.868Z,42.75
2019-02-04T19:39:34.610Z,42.78
2019-02-04T19:44:35.958Z,45.20
2019-02-04T19:47:06.482Z,47.50
2019-02-04T19:49:34.663Z,46.35
2019-02-04T19:52:02.763Z,44.42
2019-02-04T19:54:30.918Z,47.67
2019-02-04T19:57:01.136Z,50.30
2019-02-04T19:59:29.416Z,47.90
2019-02-04T20:01:57.526Z,47.93
2019-02-04T20:04:27.255Z,51.15
2019-02-04T20:06:57.012Z,47.23
2019-02-04T20:09:28.381Z,50.10
2019-02-04T20:11:57.205Z,53.30
2019-02-04T20:14:25.351Z,53.15
2019-02-04T20:16:53.495Z,54.33
2019-02-04T20:19:21.593Z,51.08
2019-02-04T20:21:50.059Z,51.53
2019-02-04T20:24:18.485Z,53.80
2019-02-04T20:26:46.612Z,58.75
2019-02-04T20:29:15.192Z,52.83
2019-02-04T20:31:43.375Z,57.62
2019-02-04T20:34:11.817Z,51.85
2019-02-04T20:36:39.993Z,54.90
2019-02-04T20:39:09.789Z,54.65
2019-02-04T20:41:37.887Z,56.30
2019-02-04T20:44:05.995Z,54.05
2019-02-04T20:46:35.067Z,58.85
2019-02-04T20:49:03.178Z,59.75
2019-02-04T20:51:32.731Z,58.10
2019-02-04T20:54:03.957Z,62.90
2019-02-04T20:56:35.446Z,56.68
2019-02-04T20:59:06.899Z,58.35
2019-02-04T21:01:35.095Z,61.33
2019-02-04T21:04:03.196Z,57.73
2019-02-04T21:06:31.319Z,61.42
2019-02-04T21:09:02.195Z,61.83
2019-02-04T21:11:33.458Z,52.65
2019-02-04T21:14:03.920Z,51.35
2019-02-04T21:16:35.300Z,57.73
2019-02-04T21:19:03.387Z,55.58
2019-02-04T21:21:31.496Z,58.70
2019-02-04T21:23:59.597Z,58.08
2019-02-04T21:26:27.720Z,57.45
2019-02-04T21:28:57.498Z,59.08
2019-02-04T21:31:27.225Z,61.08
2019-02-04T21:33:55.324Z,53.23
2019-02-04T21:36:23.452Z,63.87
2019-02-04T21:38:56.164Z,64.37
2019-02-04T21:41:24.342Z,60.33
2019-02-04T21:43:54.466Z,60.95
2019-02-04T21:46:24.206Z,61.42
2019-02-04T21:48:52.400Z,61.25
2019-02-04T21:51:20.498Z,61.37
2019-02-04T21:53:48.601Z,60.12
2019-02-04T21:56:16.778Z,65.65
2019-02-04T21:58:44.883Z,62.60
2019-02-04T22:01:13.270Z,60.28
2019-02-04T22:03:41.364Z,68.67
2019-02-04T22:06:11.153Z,65.50
2019-02-04T22:08:43.976Z,68.70
2019-02-04T22:11:12.233Z,67.47
2019-02-04T22:13:40.404Z,63.80
2019-02-04T22:16:09.464Z,65.85
2019-02-04T22:18:37.576Z,61.00
2019-02-04T22:21:05.691Z,62.08
2019-02-04T22:23:33.876Z,63.80
2019-02-04T22:26:02.031Z,57.30
2019-02-04T22:28:33.531Z,61.48
2019-02-04T22:33:29.771Z,61.28
2019-02-04T22:35:59.552Z,68.42
2019-02-04T22:38:27.697Z,62.93
2019-02-04T22:40:55.857Z,61.58
2019-02-04T22:43:24.959Z,64.83
2019-02-04T22:45:55.036Z,66.40
2019-02-04T22:48:24.902Z,65.85
2019-02-04T22:53:20.267Z,63.28
2019-02-04T22:55:48.383Z,65.42
2019-02-04T22:58:16.540Z,64.12
2019-02-04T23:00:50.266Z,66.37
2019-02-04T23:03:20.219Z,65.80
2019-02-04T23:05:48.508Z,71.33
2019-02-04T23:08:16.631Z,69.10
2019-02-04T23:10:47.907Z,66.15
2019-02-04T23:13:16.113Z,62.27
2019-02-04T23:15:45.847Z,67.78
2019-02-04T23:18:16.047Z,73.78
2019-02-04T23:20:47.382Z,73.72
2019-02-04T23:23:15.558Z,72.00
2019-02-04T23:25:45.364Z,69.50
2019-02-04T23:28:15.372Z,73.65
2019-02-04T23:30:44.211Z,67.15
2019-02-04T23:33:15.288Z,75.00
2019-02-04T23:35:43.489Z,72.20
2019-02-04T23:38:11.650Z,71.97
2019-02-04T23:40:41.199Z,78.35
2019-02-04T23:43:11.133Z,73.25
2019-02-04T23:45:39.820Z,79.05
2019-02-04T23:48:10.625Z,69.97
2019-02-04T23:50:42.933Z,72.27
2019-02-04T23:53:17.195Z,78.28
2019-02-04T23:55:54.391Z,73.50
2019-02-04T23:58:17.367Z,85.50
